sensor_id;sensor_type;location;lat;lon;timestamp;P1;durP1;ratioP1;P2;durP2;ratioP2
13061;SDS011;6597;52.218;9.882;2023-01-29T00:00:11;13.20;;;7.03;;
13061;SDS011;6597;52.218;9.882;2023-01-29T00:02:38;10.97;;;6.17;;
13061;SDS011;6597;52.218;9.882;2023-01-29T00:05:05;15.10;;;6.73;;
13061;SDS011;6597;52.218;9.882;2023-01-29T00:07:34;10.73;;;6.13;;
13061;SDS011;6597;52.218;9.882;2023-01-29T00:10:00;10.33;;;6.07;;
13061;SDS011;6597;52.218;9.882;2023-01-29T00:12:27;12.70;;;6.60;;
13061;SDS011;6597;52.218;9.882;2023-01-29T00:14:54;10.37;;;5.50;;
13061;SDS011;6597;52.218;9.882;2023-01-29T00:17:24;12.20;;;6.47;;
13061;SDS011;6597;52.218;9.882;2023-01-29T00:19:51;11.90;;;6.33;;
13061;SDS011;6597;52.218;9.882;2023-01-29T00:22:17;13.27;;;6.43;;
13061;SDS011;6597;52.218;9.882;2023-01-29T00:24:45;15.60;;;7.13;;
13061;SDS011;6597;52.218;9.882;2023-01-29T00:27:12;9.20;;;5.87;;
13061;SDS011;6597;52.218;9.882;2023-01-29T00:29:38;11.67;;;5.80;;
13061;SDS011;6597;52.218;9.882;2023-01-29T00:32:05;12.27;;;6.80;;
13061;SDS011;6597;52.218;9.882;2023-01-29T00:34:35;13.27;;;5.90;;
13061;SDS011;6597;52.218;9.882;2023-01-29T00:37:02;9.73;;;5.20;;
13061;SDS011;6597;52.218;9.882;2023-01-29T00:39:33;11.20;;;5.27;;
13061;SDS011;6597;52.218;9.882;2023-01-29T00:42:05;16.40;;;6.67;;
13061;SDS011;6597;52.218;9.882;2023-01-29T00:44:49;10.00;;;6.43;;
13061;SDS011;6597;52.218;9.882;2023-01-29T00:47:25;13.37;;;5.43;;
13061;SDS011;6597;52.218;9.882;2023-01-29T00:49:58;9.37;;;5.47;;
13061;SDS011;6597;52.218;9.882;2023-01-29T00:52:26;14.60;;;6.93;;
13061;SDS011;6597;52.218;9.882;2023-01-29T00:54:54;12.30;;;6.77;;
13061;SDS011;6597;52.218;9.882;2023-01-29T00:57:24;11.20;;;6.43;;
13061;SDS011;6597;52.218;9.882;2023-01-29T00:59:52;13.33;;;6.50;;
13061;SDS011;6597;52.218;9.882;2023-01-29T01:02:19;10.37;;;6.23;;
13061;SDS011;6597;52.218;9.882;2023-01-29T01:05:04;10.47;;;5.83;;
13061;SDS011;6597;52.218;9.882;2023-01-29T01:07:34;10.93;;;7.00;;
13061;SDS011;6597;52.218;9.882;2023-01-29T01:10:01;13.80;;;7.13;;
13061;SDS011;6597;52.218;9.882;2023-01-29T01:12:46;14.27;;;6.77;;
13061;SDS011;6597;52.218;9.882;2023-01-29T01:15:14;20.33;;;8.00;;
13061;SDS011;6597;52.218;9.882;2023-01-29T01:17:41;11.60;;;6.60;;
13061;SDS011;6597;52.218;9.882;2023-01-29T01:20:08;14.70;;;7.40;;
13061;SDS011;6597;52.218;9.882;2023-01-29T01:22:36;15.63;;;6.67;;
13061;SDS011;6597;52.218;9.882;2023-01-29T01:25:02;15.37;;;7.23;;
13061;SDS011;6597;52.218;9.882;2023-01-29T01:27:29;12.50;;;6.97;;
13061;SDS011;6597;52.218;9.882;2023-01-29T01:29:58;12.67;;;7.13;;
13061;SDS011;6597;52.218;9.882;2023-01-29T01:32:24;11.90;;;7.20;;
13061;SDS011;6597;52.218;9.882;2023-01-29T01:34:51;14.10;;;7.70;;
13061;SDS011;6597;52.218;9.882;2023-01-29T01:37:18;13.20;;;7.03;;
13061;SDS011;6597;52.218;9.882;2023-01-29T01:39:46;13.73;;;7.00;;
13061;SDS011;6597;52.218;9.882;2023-01-29T01:42:14;14.30;;;7.10;;
13061;SDS011;6597;52.218;9.882;2023-01-29T01:44:52;15.80;;;8.00;;
13061;SDS011;6597;52.218;9.882;2023-01-29T01:47:23;15.70;;;7.67;;
13061;SDS011;6597;52.218;9.882;2023-01-29T01:49:54;12.67;;;7.27;;
13061;SDS011;6597;52.218;9.882;2023-01-29T01:52:25;15.27;;;6.73;;
13061;SDS011;6597;52.218;9.882;2023-01-29T01:54:54;17.20;;;7.70;;
13061;SDS011;6597;52.218;9.882;2023-01-29T01:57:22;17.93;;;7.97;;
13061;SDS011;6597;52.218;9.882;2023-01-29T01:59:53;17.43;;;8.30;;
13061;SDS011;6597;52.218;9.882;2023-01-29T02:02:40;18.10;;;7.83;;
13061;SDS011;6597;52.218;9.882;2023-01-29T02:05:26;13.43;;;7.43;;
13061;SDS011;6597;52.218;9.882;2023-01-29T02:08:14;19.90;;;7.97;;
13061;SDS011;6597;52.218;9.882;2023-01-29T02:11:02;15.20;;;7.53;;
13061;SDS011;6597;52.218;9.882;2023-01-29T02:13:31;10.00;;;6.53;;
13061;SDS011;6597;52.218;9.882;2023-01-29T02:15:57;16.13;;;6.60;;
13061;SDS011;6597;52.218;9.882;2023-01-29T02:18:25;13.23;;;7.63;;
13061;SDS011;6597;52.218;9.882;2023-01-29T02:20:59;14.37;;;7.63;;
13061;SDS011;6597;52.218;9.882;2023-01-29T02:26:36;16.10;;;8.13;;
13061;SDS011;6597;52.218;9.882;2023-01-29T02:29:22;14.67;;;8.20;;
13061;SDS011;6597;52.218;9.882;2023-01-29T02:34:59;12.30;;;6.33;;
13061;SDS011;6597;52.218;9.882;2023-01-29T02:37:54;14.47;;;7.87;;
13061;SDS011;6597;52.218;9.882;2023-01-29T02:40:28;15.03;;;7.03;;
13061;SDS011;6597;52.218;9.882;2023-01-29T02:43:00;12.60;;;7.57;;
13061;SDS011;6597;52.218;9.882;2023-01-29T02:45:37;14.97;;;8.20;;
13061;SDS011;6597;52.218;9.882;2023-01-29T02:48:10;15.00;;;7.93;;
13061;SDS011;6597;52.218;9.882;2023-01-29T02:50:42;20.33;;;7.70;;
13061;SDS011;6597;52.218;9.882;2023-01-29T02:53:12;17.37;;;8.70;;
13061;SDS011;6597;52.218;9.882;2023-01-29T02:55:41;15.93;;;8.37;;
13061;SDS011;6597;52.218;9.882;2023-01-29T02:58:12;14.40;;;7.40;;
13061;SDS011;6597;52.218;9.882;2023-01-29T03:00:46;17.57;;;8.37;;
13061;SDS011;6597;52.218;9.882;2023-01-29T03:03:15;16.50;;;8.83;;
13061;SDS011;6597;52.218;9.882;2023-01-29T03:05:51;11.83;;;7.33;;
13061;SDS011;6597;52.218;9.882;2023-01-29T03:08:24;19.17;;;8.10;;
13061;SDS011;6597;52.218;9.882;2023-01-29T03:11:07;14.90;;;7.63;;
13061;SDS011;6597;52.218;9.882;2023-01-29T03:13:40;15.07;;;8.10;;
13061;SDS011;6597;52.218;9.882;2023-01-29T03:16:13;13.93;;;7.43;;
13061;SDS011;6597;52.218;9.882;2023-01-29T03:18:45;15.23;;;7.80;;
13061;SDS011;6597;52.218;9.882;2023-01-29T03:21:19;16.93;;;7.27;;
13061;SDS011;6597;52.218;9.882;2023-01-29T03:24:10;15.43;;;7.93;;
13061;SDS011;6597;52.218;9.882;2023-01-29T03:26:57;16.30;;;8.50;;
13061;SDS011;6597;52.218;9.882;2023-01-29T03:29:44;17.90;;;8.87;;
13061;SDS011;6597;52.218;9.882;2023-01-29T03:32:46;14.30;;;8.10;;
13061;SDS011;6597;52.218;9.882;2023-01-29T03:35:17;15.77;;;9.07;;
13061;SDS011;6597;52.218;9.882;2023-01-29T03:38:01;14.53;;;8.43;;
13061;SDS011;6597;52.218;9.882;2023-01-29T03:40:31;18.60;;;7.83;;
13061;SDS011;6597;52.218;9.882;2023-01-29T03:43:07;16.70;;;7.87;;
13061;SDS011;6597;52.218;9.882;2023-01-29T03:45:38;14.47;;;7.63;;
13061;SDS011;6597;52.218;9.882;2023-01-29T03:48:15;19.27;;;9.33;;
13061;SDS011;6597;52.218;9.882;2023-01-29T03:50:55;19.50;;;9.17;;
13061;SDS011;6597;52.218;9.882;2023-01-29T03:53:35;24.57;;;8.17;;
13061;SDS011;6597;52.218;9.882;2023-01-29T03:56:11;16.50;;;9.17;;
13061;SDS011;6597;52.218;9.882;2023-01-29T03:58:46;17.13;;;8.87;;
13061;SDS011;6597;52.218;9.882;2023-01-29T04:01:19;16.03;;;7.77;;
13061;SDS011;6597;52.218;9.882;2023-01-29T04:03:51;16.10;;;7.97;;
13061;SDS011;6597;52.218;9.882;2023-01-29T04:06:22;16.37;;;7.40;;
13061;SDS011;6597;52.218;9.882;2023-01-29T04:09:05;17.17;;;8.47;;
13061;SDS011;6597;52.218;9.882;2023-01-29T04:11:40;15.10;;;8.27;;
13061;SDS011;6597;52.218;9.882;2023-01-29T04:14:10;19.77;;;8.87;;
13061;SDS011;6597;52.218;9.882;2023-01-29T04:16:38;20.03;;;8.17;;
13061;SDS011;6597;52.218;9.882;2023-01-29T04:19:30;18.03;;;9.70;;
13061;SDS011;6597;52.218;9.882;2023-01-29T04:22:01;21.47;;;8.53;;
13061;SDS011;6597;52.218;9.882;2023-01-29T04:24:31;15.33;;;7.90;;
13061;SDS011;6597;52.218;9.882;2023-01-29T04:27:04;15.30;;;8.03;;
13061;SDS011;6597;52.218;9.882;2023-01-29T04:29:45;16.03;;;9.03;;
13061;SDS011;6597;52.218;9.882;2023-01-29T04:32:25;13.07;;;7.60;;
13061;SDS011;6597;52.218;9.882;2023-01-29T04:34:59;18.00;;;8.07;;
13061;SDS011;6597;52.218;9.882;2023-01-29T04:37:33;20.77;;;8.03;;
13061;SDS011;6597;52.218;9.882;2023-01-29T04:40:03;17.33;;;9.20;;
13061;SDS011;6597;52.218;9.882;2023-01-29T04:42:47;18.43;;;8.87;;
13061;SDS011;6597;52.218;9.882;2023-01-29T04:45:20;16.60;;;8.03;;
13061;SDS011;6597;52.218;9.882;2023-01-29T04:47:56;20.30;;;9.80;;
13061;SDS011;6597;52.218;9.882;2023-01-29T04:50:34;18.47;;;8.30;;
13061;SDS011;6597;52.218;9.882;2023-01-29T04:53:06;19.53;;;8.73;;
13061;SDS011;6597;52.218;9.882;2023-01-29T04:55:39;14.77;;;7.63;;
13061;SDS011;6597;52.218;9.882;2023-01-29T04:58:11;16.97;;;8.40;;
13061;SDS011;6597;52.218;9.882;2023-01-29T05:00:44;14.97;;;7.93;;
13061;SDS011;6597;52.218;9.882;2023-01-29T05:03:14;13.57;;;7.37;;
13061;SDS011;6597;52.218;9.882;2023-01-29T05:05:43;18.53;;;8.83;;
13061;SDS011;6597;52.218;9.882;2023-01-29T05:08:13;19.67;;;8.47;;
13061;SDS011;6597;52.218;9.882;2023-01-29T05:10:42;19.87;;;8.63;;
13061;SDS011;6597;52.218;9.882;2023-01-29T05:13:12;16.07;;;7.83;;
13061;SDS011;6597;52.218;9.882;2023-01-29T05:15:43;16.73;;;7.83;;
13061;SDS011;6597;52.218;9.882;2023-01-29T05:18:11;15.30;;;8.93;;
13061;SDS011;6597;52.218;9.882;2023-01-29T05:20:39;21.30;;;9.63;;
13061;SDS011;6597;52.218;9.882;2023-01-29T05:23:10;18.07;;;8.67;;
13061;SDS011;6597;52.218;9.882;2023-01-29T05:25:41;15.13;;;8.33;;
13061;SDS011;6597;52.218;9.882;2023-01-29T05:28:07;19.90;;;8.17;;
13061;SDS011;6597;52.218;9.882;2023-01-29T05:30:40;15.73;;;8.43;;
13061;SDS011;6597;52.218;9.882;2023-01-29T05:33:10;19.60;;;8.23;;
13061;SDS011;6597;52.218;9.882;2023-01-29T05:35:38;19.07;;;9.63;;
13061;SDS011;6597;52.218;9.882;2023-01-29T05:38:05;18.50;;;7.83;;
13061;SDS011;6597;52.218;9.882;2023-01-29T05:40:32;18.93;;;8.70;;
13061;SDS011;6597;52.218;9.882;2023-01-29T05:42:59;19.43;;;9.30;;
13061;SDS011;6597;52.218;9.882;2023-01-29T05:45:26;15.43;;;8.77;;
13061;SDS011;6597;52.218;9.882;2023-01-29T05:47:54;18.77;;;8.10;;
13061;SDS011;6597;52.218;9.882;2023-01-29T05:50:21;16.27;;;7.50;;
13061;SDS011;6597;52.218;9.882;2023-01-29T05:52:47;19.23;;;8.30;;
13061;SDS011;6597;52.218;9.882;2023-01-29T05:55:14;18.87;;;8.30;;
13061;SDS011;6597;52.218;9.882;2023-01-29T05:57:42;16.80;;;8.17;;
13061;SDS011;6597;52.218;9.882;2023-01-29T06:00:09;12.90;;;7.37;;
13061;SDS011;6597;52.218;9.882;2023-01-29T06:02:40;15.07;;;7.60;;
13061;SDS011;6597;52.218;9.882;2023-01-29T06:05:07;15.70;;;8.50;;
13061;SDS011;6597;52.218;9.882;2023-01-29T06:07:34;16.90;;;8.27;;
13061;SDS011;6597;52.218;9.882;2023-01-29T06:10:01;16.10;;;7.77;;
13061;SDS011;6597;52.218;9.882;2023-01-29T06:12:27;16.73;;;8.70;;
13061;SDS011;6597;52.218;9.882;2023-01-29T06:14:55;17.87;;;8.63;;
13061;SDS011;6597;52.218;9.882;2023-01-29T06:17:22;23.87;;;9.30;;
13061;SDS011;6597;52.218;9.882;2023-01-29T06:19:48;17.87;;;9.23;;
13061;SDS011;6597;52.218;9.882;2023-01-29T06:22:15;21.20;;;8.90;;
13061;SDS011;6597;52.218;9.882;2023-01-29T06:24:41;24.33;;;9.60;;
13061;SDS011;6597;52.218;9.882;2023-01-29T06:27:08;21.70;;;9.37;;
13061;SDS011;6597;52.218;9.882;2023-01-29T06:29:35;19.33;;;9.90;;
13061;SDS011;6597;52.218;9.882;2023-01-29T06:32:03;17.10;;;8.90;;
13061;SDS011;6597;52.218;9.882;2023-01-29T06:34:30;23.30;;;9.77;;
13061;SDS011;6597;52.218;9.882;2023-01-29T06:36:56;24.93;;;10.00;;
13061;SDS011;6597;52.218;9.882;2023-01-29T06:39:23;18.47;;;9.77;;
13061;SDS011;6597;52.218;9.882;2023-01-29T06:41:50;23.80;;;9.83;;
13061;SDS011;6597;52.218;9.882;2023-01-29T06:44:16;21.47;;;10.23;;
13061;SDS011;6597;52.218;9.882;2023-01-29T06:46:43;23.87;;;9.90;;
13061;SDS011;6597;52.218;9.882;2023-01-29T06:49:10;18.03;;;9.33;;
13061;SDS011;6597;52.218;9.882;2023-01-29T06:51:38;18.10;;;8.93;;
13061;SDS011;6597;52.218;9.882;2023-01-29T06:54:05;21.00;;;9.10;;
13061;SDS011;6597;52.218;9.882;2023-01-29T06:56:32;21.40;;;10.53;;
13061;SDS011;6597;52.218;9.882;2023-01-29T06:58:59;20.00;;;9.37;;
13061;SDS011;6597;52.218;9.882;2023-01-29T07:01:25;17.23;;;8.33;;
13061;SDS011;6597;52.218;9.882;2023-01-29T07:03:52;17.47;;;9.13;;
13061;SDS011;6597;52.218;9.882;2023-01-29T07:06:20;21.27;;;8.40;;
13061;SDS011;6597;52.218;9.882;2023-01-29T07:08:46;18.50;;;9.17;;
13061;SDS011;6597;52.218;9.882;2023-01-29T07:11:13;20.20;;;9.20;;
13061;SDS011;6597;52.218;9.882;2023-01-29T07:13:39;20.00;;;9.40;;
13061;SDS011;6597;52.218;9.882;2023-01-29T07:16:06;25.47;;;9.13;;
13061;SDS011;6597;52.218;9.882;2023-01-29T07:18:32;20.67;;;8.93;;
13061;SDS011;6597;52.218;9.882;2023-01-29T07:21:02;20.13;;;9.87;;
13061;SDS011;6597;52.218;9.882;2023-01-29T07:23:31;20.60;;;9.97;;
13061;SDS011;6597;52.218;9.882;2023-01-29T07:25:59;21.67;;;9.07;;
13061;SDS011;6597;52.218;9.882;2023-01-29T07:28:26;19.73;;;9.80;;
13061;SDS011;6597;52.218;9.882;2023-01-29T07:30:54;18.90;;;8.47;;
13061;SDS011;6597;52.218;9.882;2023-01-29T07:33:21;20.80;;;10.20;;
13061;SDS011;6597;52.218;9.882;2023-01-29T07:35:48;18.07;;;9.17;;
13061;SDS011;6597;52.218;9.882;2023-01-29T07:38:14;20.07;;;9.30;;
13061;SDS011;6597;52.218;9.882;2023-01-29T07:40:42;22.20;;;10.40;;
13061;SDS011;6597;52.218;9.882;2023-01-29T07:43:09;17.50;;;8.97;;
13061;SDS011;6597;52.218;9.882;2023-01-29T07:45:37;20.73;;;10.40;;
13061;SDS011;6597;52.218;9.882;2023-01-29T07:48:05;17.87;;;9.17;;
13061;SDS011;6597;52.218;9.882;2023-01-29T07:50:33;20.83;;;9.60;;
13061;SDS011;6597;52.218;9.882;2023-01-29T07:53:00;22.20;;;10.37;;
13061;SDS011;6597;52.218;9.882;2023-01-29T07:55:27;24.13;;;9.77;;
13061;SDS011;6597;52.218;9.882;2023-01-29T07:57:55;24.50;;;12.33;;
13061;SDS011;6597;52.218;9.882;2023-01-29T08:00:22;23.80;;;11.50;;
13061;SDS011;6597;52.218;9.882;2023-01-29T08:02:49;24.13;;;11.57;;
13061;SDS011;6597;52.218;9.882;2023-01-29T08:05:15;20.13;;;9.73;;
13061;SDS011;6597;52.218;9.882;2023-01-29T08:07:42;22.30;;;8.80;;
13061;SDS011;6597;52.218;9.882;2023-01-29T08:10:09;25.83;;;11.23;;
13061;SDS011;6597;52.218;9.882;2023-01-29T08:12:36;21.97;;;8.97;;
13061;SDS011;6597;52.218;9.882;2023-01-29T08:15:04;27.20;;;11.70;;
13061;SDS011;6597;52.218;9.882;2023-01-29T08:17:31;24.20;;;11.93;;
13061;SDS011;6597;52.218;9.882;2023-01-29T08:19:58;29.00;;;12.27;;
13061;SDS011;6597;52.218;9.882;2023-01-29T08:22:24;26.17;;;12.67;;
13061;SDS011;6597;52.218;9.882;2023-01-29T08:24:51;21.50;;;11.33;;
13061;SDS011;6597;52.218;9.882;2023-01-29T08:27:17;24.87;;;10.97;;
13061;SDS011;6597;52.218;9.882;2023-01-29T08:29:44;19.27;;;9.60;;
13061;SDS011;6597;52.218;9.882;2023-01-29T08:32:12;23.13;;;11.53;;
13061;SDS011;6597;52.218;9.882;2023-01-29T08:34:38;19.90;;;10.33;;
13061;SDS011;6597;52.218;9.882;2023-01-29T08:37:05;20.97;;;9.97;;
13061;SDS011;6597;52.218;9.882;2023-01-29T08:39:31;22.27;;;9.60;;
13061;SDS011;6597;52.218;9.882;2023-01-29T08:41:58;23.93;;;11.03;;
13061;SDS011;6597;52.218;9.882;2023-01-29T08:44:24;22.87;;;10.77;;
13061;SDS011;6597;52.218;9.882;2023-01-29T08:46:51;18.60;;;10.10;;
13061;SDS011;6597;52.218;9.882;2023-01-29T08:49:18;23.07;;;11.63;;
13061;SDS011;6597;52.218;9.882;2023-01-29T08:51:45;26.93;;;13.23;;
13061;SDS011;6597;52.218;9.882;2023-01-29T08:54:12;21.20;;;9.23;;
13061;SDS011;6597;52.218;9.882;2023-01-29T08:56:38;20.33;;;10.40;;
13061;SDS011;6597;52.218;9.882;2023-01-29T08:59:05;21.03;;;8.97;;
13061;SDS011;6597;52.218;9.882;2023-01-29T09:01:31;25.47;;;10.83;;
13061;SDS011;6597;52.218;9.882;2023-01-29T09:03:58;24.50;;;9.97;;
13061;SDS011;6597;52.218;9.882;2023-01-29T09:06:25;29.70;;;12.53;;
13061;SDS011;6597;52.218;9.882;2023-01-29T09:08:52;22.83;;;10.77;;
13061;SDS011;6597;52.218;9.882;2023-01-29T09:11:19;22.80;;;9.50;;
13061;SDS011;6597;52.218;9.882;2023-01-29T09:13:45;22.80;;;11.40;;
13061;SDS011;6597;52.218;9.882;2023-01-29T09:16:11;27.57;;;11.83;;
13061;SDS011;6597;52.218;9.882;2023-01-29T09:18:38;23.70;;;11.20;;
13061;SDS011;6597;52.218;9.882;2023-01-29T09:21:05;27.10;;;10.57;;
13061;SDS011;6597;52.218;9.882;2023-01-29T09:23:32;20.23;;;10.60;;
13061;SDS011;6597;52.218;9.882;2023-01-29T09:25:59;26.50;;;11.00;;
13061;SDS011;6597;52.218;9.882;2023-01-29T09:28:25;21.97;;;11.07;;
13061;SDS011;6597;52.218;9.882;2023-01-29T09:30:52;20.10;;;9.70;;
13061;SDS011;6597;52.218;9.882;2023-01-29T09:33:19;24.33;;;11.83;;
13061;SDS011;6597;52.218;9.882;2023-01-29T09:35:45;31.03;;;12.77;;
13061;SDS011;6597;52.218;9.882;2023-01-29T09:38:12;27.57;;;10.87;;
13061;SDS011;6597;52.218;9.882;2023-01-29T09:40:42;21.57;;;10.87;;
13061;SDS011;6597;52.218;9.882;2023-01-29T09:43:17;25.67;;;11.17;;
13061;SDS011;6597;52.218;9.882;2023-01-29T09:45:49;24.90;;;11.07;;
13061;SDS011;6597;52.218;9.882;2023-01-29T09:48:20;28.27;;;12.73;;
13061;SDS011;6597;52.218;9.882;2023-01-29T09:50:48;20.77;;;10.07;;
13061;SDS011;6597;52.218;9.882;2023-01-29T09:53:20;20.10;;;10.27;;
13061;SDS011;6597;52.218;9.882;2023-01-29T09:55:57;30.13;;;13.17;;
13061;SDS011;6597;52.218;9.882;2023-01-29T09:58:26;22.90;;;11.30;;
13061;SDS011;6597;52.218;9.882;2023-01-29T10:00:57;28.50;;;11.53;;
13061;SDS011;6597;52.218;9.882;2023-01-29T10:03:33;30.27;;;12.77;;
13061;SDS011;6597;52.218;9.882;2023-01-29T10:06:18;20.60;;;10.13;;
13061;SDS011;6597;52.218;9.882;2023-01-29T10:09:02;23.17;;;13.03;;
13061;SDS011;6597;52.218;9.882;2023-01-29T10:11:47;31.40;;;11.27;;
13061;SDS011;6597;52.218;9.882;2023-01-29T10:14:24;22.73;;;10.53;;
13061;SDS011;6597;52.218;9.882;2023-01-29T10:17:04;18.23;;;9.80;;
13061;SDS011;6597;52.218;9.882;2023-01-29T10:19:51;29.33;;;12.90;;
13061;SDS011;6597;52.218;9.882;2023-01-29T10:22:37;21.27;;;9.73;;
13061;SDS011;6597;52.218;9.882;2023-01-29T10:25:13;27.77;;;13.03;;
13061;SDS011;6597;52.218;9.882;2023-01-29T10:27:46;23.50;;;12.07;;
13061;SDS011;6597;52.218;9.882;2023-01-29T10:30:19;24.10;;;10.87;;
13061;SDS011;6597;52.218;9.882;2023-01-29T10:32:49;26.13;;;10.50;;
13061;SDS011;6597;52.218;9.882;2023-01-29T10:35:21;26.10;;;12.97;;
13061;SDS011;6597;52.218;9.882;2023-01-29T10:37:50;21.93;;;11.00;;
13061;SDS011;6597;52.218;9.882;2023-01-29T10:40:19;18.70;;;8.83;;
13061;SDS011;6597;52.218;9.882;2023-01-29T10:42:49;24.20;;;10.43;;
13061;SDS011;6597;52.218;9.882;2023-01-29T10:45:25;18.73;;;10.23;;
13061;SDS011;6597;52.218;9.882;2023-01-29T10:48:07;18.60;;;10.10;;
13061;SDS011;6597;52.218;9.882;2023-01-29T10:50:53;24.27;;;9.97;;
13061;SDS011;6597;52.218;9.882;2023-01-29T10:53:29;26.67;;;11.40;;
13061;SDS011;6597;52.218;9.882;2023-01-29T10:56:07;25.80;;;10.90;;
13061;SDS011;6597;52.218;9.882;2023-01-29T10:58:48;23.37;;;10.67;;
13061;SDS011;6597;52.218;9.882;2023-01-29T11:01:17;23.67;;;11.00;;
13061;SDS011;6597;52.218;9.882;2023-01-29T11:03:43;18.97;;;9.63;;
13061;SDS011;6597;52.218;9.882;2023-01-29T11:06:11;19.87;;;10.67;;
13061;SDS011;6597;52.218;9.882;2023-01-29T11:08:42;25.83;;;11.37;;
13061;SDS011;6597;52.218;9.882;2023-01-29T11:11:15;25.63;;;11.67;;
13061;SDS011;6597;52.218;9.882;2023-01-29T11:13:44;22.73;;;11.33;;
13061;SDS011;6597;52.218;9.882;2023-01-29T11:16:18;22.87;;;11.40;;
13061;SDS011;6597;52.218;9.882;2023-01-29T11:18:51;24.77;;;10.90;;
13061;SDS011;6597;52.218;9.882;2023-01-29T11:21:20;26.97;;;10.67;;
13061;SDS011;6597;52.218;9.882;2023-01-29T11:23:48;22.97;;;11.07;;
13061;SDS011;6597;52.218;9.882;2023-01-29T11:26:16;22.80;;;10.37;;
13061;SDS011;6597;52.218;9.882;2023-01-29T11:28:47;21.40;;;10.40;;
13061;SDS011;6597;52.218;9.882;2023-01-29T11:31:16;20.57;;;9.50;;
13061;SDS011;6597;52.218;9.882;2023-01-29T11:33:45;21.83;;;9.70;;
13061;SDS011;6597;52.218;9.882;2023-01-29T11:36:19;20.70;;;11.07;;
13061;SDS011;6597;52.218;9.882;2023-01-29T11:39:14;20.73;;;8.97;;
13061;SDS011;6597;52.218;9.882;2023-01-29T11:41:47;22.03;;;10.17;;
13061;SDS011;6597;52.218;9.882;2023-01-29T11:44:19;19.33;;;9.37;;
13061;SDS011;6597;52.218;9.882;2023-01-29T11:46:47;15.73;;;8.30;;
13061;SDS011;6597;52.218;9.882;2023-01-29T11:49:20;26.03;;;11.13;;
13061;SDS011;6597;52.218;9.882;2023-01-29T11:51:50;18.73;;;8.73;;
13061;SDS011;6597;52.218;9.882;2023-01-29T11:54:19;19.87;;;10.47;;
13061;SDS011;6597;52.218;9.882;2023-01-29T11:56:49;27.10;;;10.77;;
13061;SDS011;6597;52.218;9.882;2023-01-29T11:59:25;18.90;;;10.20;;
13061;SDS011;6597;52.218;9.882;2023-01-29T12:01:55;23.10;;;10.70;;
13061;SDS011;6597;52.218;9.882;2023-01-29T12:04:28;18.57;;;9.37;;
13061;SDS011;6597;52.218;9.882;2023-01-29T12:06:55;23.40;;;10.27;;
13061;SDS011;6597;52.218;9.882;2023-01-29T12:09:23;23.43;;;10.53;;
13061;SDS011;6597;52.218;9.882;2023-01-29T12:11:52;21.37;;;10.20;;
13061;SDS011;6597;52.218;9.882;2023-01-29T12:14:25;17.03;;;9.13;;
13061;SDS011;6597;52.218;9.882;2023-01-29T12:16:55;24.03;;;9.80;;
13061;SDS011;6597;52.218;9.882;2023-01-29T12:19:26;24.13;;;9.67;;
13061;SDS011;6597;52.218;9.882;2023-01-29T12:22:00;22.70;;;9.50;;
13061;SDS011;6597;52.218;9.882;2023-01-29T12:24:32;17.93;;;8.17;;
13061;SDS011;6597;52.218;9.882;2023-01-29T12:27:05;18.10;;;8.70;;
13061;SDS011;6597;52.218;9.882;2023-01-29T12:29:39;19.20;;;8.40;;
13061;SDS011;6597;52.218;9.882;2023-01-29T12:32:14;20.43;;;9.10;;
13061;SDS011;6597;52.218;9.882;2023-01-29T12:34:49;20.57;;;9.03;;
13061;SDS011;6597;52.218;9.882;2023-01-29T12:37:22;19.57;;;8.37;;
13061;SDS011;6597;52.218;9.882;2023-01-29T12:39:55;17.63;;;7.13;;
13061;SDS011;6597;52.218;9.882;2023-01-29T12:42:22;18.47;;;8.93;;
13061;SDS011;6597;52.218;9.882;2023-01-29T12:44:51;15.07;;;7.83;;
13061;SDS011;6597;52.218;9.882;2023-01-29T12:47:22;17.90;;;7.67;;
13061;SDS011;6597;52.218;9.882;2023-01-29T12:49:54;16.30;;;8.30;;
13061;SDS011;6597;52.218;9.882;2023-01-29T12:52:25;13.90;;;7.67;;
13061;SDS011;6597;52.218;9.882;2023-01-29T12:55:02;15.73;;;7.60;;
13061;SDS011;6597;52.218;9.882;2023-01-29T12:57:37;14.90;;;8.23;;
13061;SDS011;6597;52.218;9.882;2023-01-29T13:00:10;13.03;;;5.53;;
13061;SDS011;6597;52.218;9.882;2023-01-29T13:02:43;14.67;;;7.47;;
13061;SDS011;6597;52.218;9.882;2023-01-29T13:05:16;17.67;;;7.10;;
13061;SDS011;6597;52.218;9.882;2023-01-29T13:07:48;15.47;;;7.47;;
13061;SDS011;6597;52.218;9.882;2023-01-29T13:10:19;16.13;;;6.80;;
13061;SDS011;6597;52.218;9.882;2023-01-29T13:12:51;13.63;;;7.27;;
13061;SDS011;6597;52.218;9.882;2023-01-29T13:15:25;18.10;;;7.83;;
13061;SDS011;6597;52.218;9.882;2023-01-29T13:17:57;16.93;;;7.03;;
13061;SDS011;6597;52.218;9.882;2023-01-29T13:20:31;14.10;;;6.77;;
13061;SDS011;6597;52.218;9.882;2023-01-29T13:23:02;13.67;;;6.67;;
13061;SDS011;6597;52.218;9.882;2023-01-29T13:25:40;12.67;;;6.43;;
13061;SDS011;6597;52.218;9.882;2023-01-29T13:28:13;13.07;;;5.90;;
13061;SDS011;6597;52.218;9.882;2023-01-29T13:30:43;14.30;;;6.60;;
13061;SDS011;6597;52.218;9.882;2023-01-29T13:33:14;12.50;;;5.63;;
13061;SDS011;6597;52.218;9.882;2023-01-29T13:35:47;15.97;;;6.67;;
13061;SDS011;6597;52.218;9.882;2023-01-29T13:38:25;14.57;;;6.30;;
13061;SDS011;6597;52.218;9.882;2023-01-29T13:40:54;16.73;;;7.93;;
13061;SDS011;6597;52.218;9.882;2023-01-29T13:43:25;16.40;;;7.20;;
13061;SDS011;6597;52.218;9.882;2023-01-29T13:45:56;11.83;;;6.20;;
13061;SDS011;6597;52.218;9.882;2023-01-29T13:48:23;13.37;;;6.97;;
13061;SDS011;6597;52.218;9.882;2023-01-29T13:50:52;13.43;;;6.80;;
13061;SDS011;6597;52.218;9.882;2023-01-29T13:53:21;13.20;;;6.97;;
13061;SDS011;6597;52.218;9.882;2023-01-29T13:55:50;11.40;;;6.33;;
13061;SDS011;6597;52.218;9.882;2023-01-29T13:58:17;9.57;;;5.60;;
13061;SDS011;6597;52.218;9.882;2023-01-29T14:01:20;10.40;;;5.77;;
13061;SDS011;6597;52.218;9.882;2023-01-29T14:04:27;13.80;;;6.23;;
13061;SDS011;6597;52.218;9.882;2023-01-29T14:06:55;14.03;;;7.47;;
13061;SDS011;6597;52.218;9.882;2023-01-29T14:12:38;10.93;;;6.60;;
13061;SDS011;6597;52.218;9.882;2023-01-29T14:15:13;17.10;;;8.13;;
13061;SDS011;6597;52.218;9.882;2023-01-29T14:23:45;13.37;;;6.83;;
13061;SDS011;6597;52.218;9.882;2023-01-29T14:26:19;15.53;;;7.70;;
13061;SDS011;6597;52.218;9.882;2023-01-29T14:29:01;14.83;;;7.40;;
13061;SDS011;6597;52.218;9.882;2023-01-29T14:31:35;13.17;;;7.17;;
13061;SDS011;6597;52.218;9.882;2023-01-29T14:34:06;13.87;;;8.60;;
13061;SDS011;6597;52.218;9.882;2023-01-29T14:36:42;14.53;;;7.37;;
13061;SDS011;6597;52.218;9.882;2023-01-29T14:39:21;14.67;;;6.87;;
13061;SDS011;6597;52.218;9.882;2023-01-29T14:41:53;15.63;;;7.50;;
13061;SDS011;6597;52.218;9.882;2023-01-29T14:47:16;17.57;;;7.17;;
13061;SDS011;6597;52.218;9.882;2023-01-29T14:49:47;12.03;;;7.33;;
13061;SDS011;6597;52.218;9.882;2023-01-29T14:52:17;13.97;;;6.50;;
13061;SDS011;6597;52.218;9.882;2023-01-29T14:54:45;18.13;;;7.17;;
13061;SDS011;6597;52.218;9.882;2023-01-29T14:57:14;15.03;;;7.80;;
13061;SDS011;6597;52.218;9.882;2023-01-29T14:59:45;16.17;;;7.27;;
13061;SDS011;6597;52.218;9.882;2023-01-29T15:02:20;13.73;;;7.40;;
13061;SDS011;6597;52.218;9.882;2023-01-29T15:04:51;14.33;;;6.87;;
13061;SDS011;6597;52.218;9.882;2023-01-29T15:07:24;14.03;;;6.93;;
13061;SDS011;6597;52.218;9.882;2023-01-29T15:09:56;12.23;;;7.47;;
13061;SDS011;6597;52.218;9.882;2023-01-29T15:12:32;12.90;;;6.20;;
13061;SDS011;6597;52.218;9.882;2023-01-29T15:15:06;16.63;;;7.47;;
13061;SDS011;6597;52.218;9.882;2023-01-29T15:17:44;15.03;;;7.50;;
13061;SDS011;6597;52.218;9.882;2023-01-29T15:20:24;15.23;;;8.17;;
13061;SDS011;6597;52.218;9.882;2023-01-29T15:22:53;15.00;;;7.33;;
13061;SDS011;6597;52.218;9.882;2023-01-29T15:25:20;14.90;;;7.73;;
13061;SDS011;6597;52.218;9.882;2023-01-29T15:27:47;17.30;;;8.53;;